sensor_id;sensor_type;location;lat;lon;timestamp;P1;durP1;ratioP1;P2;durP2;ratioP2
1593;SDS011;790;47.000;16.084;2024-03-29T00:00:43;0.60;;;0.60;;
1593;SDS011;790;47.000;16.084;2024-03-29T00:07:05;1.03;;;0.50;;
1593;SDS011;790;47.000;16.084;2024-03-29T00:13:27;1.07;;;0.60;;
1593;SDS011;790;47.000;16.084;2024-03-29T00:19:48;1.40;;;1.00;;
1593;SDS011;790;47.000;16.084;2024-03-29T00:26:10;1.73;;;0.70;;
1593;SDS011;790;47.000;16.084;2024-03-29T00:32:32;1.40;;;0.50;;
1593;SDS011;790;47.000;16.084;2024-03-29T00:38:53;1.17;;;0.60;;
1593;SDS011;790;47.000;16.084;2024-03-29T00:49:39;0.50;;;0.50;;
1593;SDS011;790;47.000;16.084;2024-03-29T00:56:01;1.03;;;0.70;;
1593;SDS011;790;47.000;16.084;2024-03-29T01:02:22;0.50;;;0.50;;
1593;SDS011;790;47.000;16.084;2024-03-29T01:08:44;0.70;;;0.60;;
1593;SDS011;790;47.000;16.084;2024-03-29T01:15:06;0.60;;;0.50;;
1593;SDS011;790;47.000;16.084;2024-03-29T01:21:27;0.60;;;0.60;;
1593;SDS011;790;47.000;16.084;2024-03-29T01:27:49;0.77;;;0.60;;
1593;SDS011;790;47.000;16.084;2024-03-29T01:34:11;0.60;;;0.60;;
1593;SDS011;790;47.000;16.084;2024-03-29T01:40:33;0.87;;;0.70;;
1593;SDS011;790;47.000;16.084;2024-03-29T01:51:20;0.60;;;0.60;;
1593;SDS011;790;47.000;16.084;2024-03-29T01:57:43;0.40;;;0.40;;
1593;SDS011;790;47.000;16.084;2024-03-29T02:04:06;1.10;;;0.57;;
1593;SDS011;790;47.000;16.084;2024-03-29T02:10:31;0.70;;;0.57;;
1593;SDS011;790;47.000;16.084;2024-03-29T02:16:53;0.70;;;0.70;;
1593;SDS011;790;47.000;16.084;2024-03-29T02:23:16;2.13;;;0.60;;
1593;SDS011;790;47.000;16.084;2024-03-29T02:29:41;1.30;;;0.50;;
1593;SDS011;790;47.000;16.084;2024-03-29T02:36:04;0.60;;;0.60;;
1593;SDS011;790;47.000;16.084;2024-03-29T02:42:27;0.67;;;0.67;;
1593;SDS011;790;47.000;16.084;2024-03-29T02:53:14;0.70;;;0.70;;
1593;SDS011;790;47.000;16.084;2024-03-29T02:59:39;0.80;;;0.70;;
1593;SDS011;790;47.000;16.084;2024-03-29T03:06:02;0.60;;;0.60;;
1593;SDS011;790;47.000;16.084;2024-03-29T03:12:25;0.50;;;0.50;;
1593;SDS011;790;47.000;16.084;2024-03-29T03:18:50;0.57;;;0.57;;
1593;SDS011;790;47.000;16.084;2024-03-29T03:25:12;0.50;;;0.50;;
1593;SDS011;790;47.000;16.084;2024-03-29T03:31:35;0.60;;;0.60;;
1593;SDS011;790;47.000;16.084;2024-03-29T03:37:57;0.93;;;0.57;;
1593;SDS011;790;47.000;16.084;2024-03-29T03:44:20;0.50;;;0.50;;
1593;SDS011;790;47.000;16.084;2024-03-29T03:55:11;0.60;;;0.50;;
1593;SDS011;790;47.000;16.084;2024-03-29T04:01:34;0.53;;;0.53;;
1593;SDS011;790;47.000;16.084;2024-03-29T04:07:56;0.80;;;0.80;;
1593;SDS011;790;47.000;16.084;2024-03-29T04:14:20;0.70;;;0.60;;
1593;SDS011;790;47.000;16.084;2024-03-29T04:20:43;0.70;;;0.70;;
1593;SDS011;790;47.000;16.084;2024-03-29T04:27:05;3.60;;;1.53;;
1593;SDS011;790;47.000;16.084;2024-03-29T04:33:29;0.80;;;0.80;;
1593;SDS011;790;47.000;16.084;2024-03-29T04:39:51;0.80;;;0.80;;
1593;SDS011;790;47.000;16.084;2024-03-29T04:46:13;0.70;;;0.70;;
1593;SDS011;790;47.000;16.084;2024-03-29T04:57:02;0.80;;;0.80;;
1593;SDS011;790;47.000;16.084;2024-03-29T05:03:26;0.80;;;0.80;;
1593;SDS011;790;47.000;16.084;2024-03-29T05:09:48;1.87;;;1.00;;
1593;SDS011;790;47.000;16.084;2024-03-29T05:16:11;0.90;;;0.90;;
1593;SDS011;790;47.000;16.084;2024-03-29T05:22:33;1.37;;;1.37;;
1593;SDS011;790;47.000;16.084;2024-03-29T05:29:05;1.60;;;1.50;;
1593;SDS011;790;47.000;16.084;2024-03-29T05:35:30;3.77;;;3.00;;
1593;SDS011;790;47.000;16.084;2024-03-29T05:41:52;2.00;;;1.90;;
1593;SDS011;790;47.000;16.084;2024-03-29T05:48:14;5.63;;;5.27;;
1593;SDS011;790;47.000;16.084;2024-03-29T05:59:25;3.70;;;3.50;;
1593;SDS011;790;47.000;16.084;2024-03-29T06:05:47;2.50;;;2.30;;
1593;SDS011;790;47.000;16.084;2024-03-29T06:12:09;2.87;;;1.80;;
1593;SDS011;790;47.000;16.084;2024-03-29T06:18:32;2.97;;;1.60;;
1593;SDS011;790;47.000;16.084;2024-03-29T06:24:54;1.20;;;1.20;;
1593;SDS011;790;47.000;16.084;2024-03-29T06:31:18;1.40;;;1.30;;
1593;SDS011;790;47.000;16.084;2024-03-29T06:37:42;1.50;;;1.40;;
1593;SDS011;790;47.000;16.084;2024-03-29T06:44:04;1.00;;;1.00;;
1593;SDS011;790;47.000;16.084;2024-03-29T06:50:26;1.20;;;1.20;;
1593;SDS011;790;47.000;16.084;2024-03-29T07:01:35;1.30;;;1.30;;
1593;SDS011;790;47.000;16.084;2024-03-29T07:07:58;1.30;;;1.20;;
1593;SDS011;790;47.000;16.084;2024-03-29T07:14:21;1.20;;;1.20;;
1593;SDS011;790;47.000;16.084;2024-03-29T07:20:47;0.90;;;0.90;;
1593;SDS011;790;47.000;16.084;2024-03-29T07:27:10;2.00;;;1.20;;
1593;SDS011;790;47.000;16.084;2024-03-29T07:33:34;1.30;;;1.30;;
1593;SDS011;790;47.000;16.084;2024-03-29T07:40:00;1.10;;;1.10;;
1593;SDS011;790;47.000;16.084;2024-03-29T07:46:23;2.00;;;1.30;;
1593;SDS011;790;47.000;16.084;2024-03-29T07:52:46;1.40;;;1.30;;
1593;SDS011;790;47.000;16.084;2024-03-29T08:03:55;3.40;;;1.23;;
1593;SDS011;790;47.000;16.084;2024-03-29T08:10:17;2.10;;;1.10;;
1593;SDS011;790;47.000;16.084;2024-03-29T08:16:39;3.67;;;1.53;;
1593;SDS011;790;47.000;16.084;2024-03-29T08:23:04;2.80;;;1.60;;
1593;SDS011;790;47.000;16.084;2024-03-29T08:29:26;4.13;;;1.40;;
1593;SDS011;790;47.000;16.084;2024-03-29T08:35:48;2.73;;;2.00;;
1593;SDS011;790;47.000;16.084;2024-03-29T08:42:12;3.30;;;1.63;;
1593;SDS011;790;47.000;16.084;2024-03-29T08:48:36;3.60;;;1.63;;
1593;SDS011;790;47.000;16.084;2024-03-29T08:55:02;2.73;;;1.50;;
1593;SDS011;790;47.000;16.084;2024-03-29T09:06:11;3.23;;;2.10;;
1593;SDS011;790;47.000;16.084;2024-03-29T09:12:34;5.50;;;1.90;;
1593;SDS011;790;47.000;16.084;2024-03-29T09:18:56;5.03;;;1.83;;
1593;SDS011;790;47.000;16.084;2024-03-29T09:25:20;4.67;;;1.80;;
1593;SDS011;790;47.000;16.084;2024-03-29T09:31:42;4.10;;;2.10;;
1593;SDS011;790;47.000;16.084;2024-03-29T09:38:04;6.17;;;1.90;;
1593;SDS011;790;47.000;16.084;2024-03-29T09:44:30;3.47;;;2.00;;
1593;SDS011;790;47.000;16.084;2024-03-29T09:50:54;6.57;;;2.40;;
1593;SDS011;790;47.000;16.084;2024-03-29T09:57:18;7.67;;;2.60;;
1593;SDS011;790;47.000;16.084;2024-03-29T10:08:26;5.37;;;2.07;;
1593;SDS011;790;47.000;16.084;2024-03-29T10:14:49;6.13;;;2.17;;
1593;SDS011;790;47.000;16.084;2024-03-29T10:21:15;8.87;;;3.03;;
1593;SDS011;790;47.000;16.084;2024-03-29T10:27:39;7.80;;;2.80;;
1593;SDS011;790;47.000;16.084;2024-03-29T10:34:02;7.15;;;2.15;;
1593;SDS011;790;47.000;16.084;2024-03-29T10:40:25;8.55;;;2.38;;
1593;SDS011;790;47.000;16.084;2024-03-29T10:46:51;7.90;;;2.35;;
1593;SDS011;790;47.000;16.084;2024-03-29T10:53:14;7.10;;;2.28;;
1593;SDS011;790;47.000;16.084;2024-03-29T10:59:39;10.05;;;3.00;;
1593;SDS011;790;47.000;16.084;2024-03-29T11:11:02;5.57;;;2.10;;
1593;SDS011;790;47.000;16.084;2024-03-29T11:17:26;5.00;;;2.33;;
1593;SDS011;790;47.000;16.084;2024-03-29T11:23:50;4.80;;;2.08;;
1593;SDS011;790;47.000;16.084;2024-03-29T11:30:18;5.35;;;2.08;;
1593;SDS011;790;47.000;16.084;2024-03-29T11:36:40;9.15;;;2.80;;
1593;SDS011;790;47.000;16.084;2024-03-29T11:43:02;6.40;;;2.10;;
1593;SDS011;790;47.000;16.084;2024-03-29T11:49:26;11.63;;;3.28;;
1593;SDS011;790;47.000;16.084;2024-03-29T11:55:48;6.63;;;2.30;;
1593;SDS011;790;47.000;16.084;2024-03-29T12:02:13;6.45;;;2.60;;
1593;SDS011;790;47.000;16.084;2024-03-29T12:13:31;8.45;;;4.25;;
1593;SDS011;790;47.000;16.084;2024-03-29T12:19:57;11.15;;;7.05;;
1593;SDS011;790;47.000;16.084;2024-03-29T12:26:24;5.03;;;3.88;;
1593;SDS011;790;47.000;16.084;2024-03-29T12:33:01;10.30;;;3.58;;
1593;SDS011;790;47.000;16.084;2024-03-29T12:39:23;15.70;;;7.10;;
1593;SDS011;790;47.000;16.084;2024-03-29T12:45:46;10.65;;;5.88;;
1593;SDS011;790;47.000;16.084;2024-03-29T12:52:11;12.60;;;4.38;;
1593;SDS011;790;47.000;16.084;2024-03-29T12:58:33;14.15;;;7.65;;
1593;SDS011;790;47.000;16.084;2024-03-29T13:04:57;8.15;;;2.88;;
1593;SDS011;790;47.000;16.084;2024-03-29T13:16:17;5.63;;;2.28;;
1593;SDS011;790;47.000;16.084;2024-03-29T13:22:40;8.82;;;4.25;;
1593;SDS011;790;47.000;16.084;2024-03-29T13:29:05;12.18;;;5.30;;
1593;SDS011;790;47.000;16.084;2024-03-29T13:35:29;5.97;;;2.90;;
1593;SDS011;790;47.000;16.084;2024-03-29T13:41:53;25.13;;;15.13;;
1593;SDS011;790;47.000;16.084;2024-03-29T13:48:16;8.50;;;3.03;;
1593;SDS011;790;47.000;16.084;2024-03-29T13:54:43;9.38;;;3.97;;
1593;SDS011;790;47.000;16.084;2024-03-29T14:01:07;11.75;;;3.40;;
1593;SDS011;790;47.000;16.084;2024-03-29T14:07:30;9.40;;;2.45;;
1593;SDS011;790;47.000;16.084;2024-03-29T14:18:47;7.45;;;2.75;;
1593;SDS011;790;47.000;16.084;2024-03-29T14:25:11;8.38;;;2.15;;
1593;SDS011;790;47.000;16.084;2024-03-29T14:31:33;7.13;;;2.15;;
1593;SDS011;790;47.000;16.084;2024-03-29T14:37:58;7.47;;;2.22;;
1593;SDS011;790;47.000;16.084;2024-03-29T14:44:20;5.50;;;2.20;;
1593;SDS011;790;47.000;16.084;2024-03-29T14:50:43;9.40;;;2.60;;
1593;SDS011;790;47.000;16.084;2024-03-29T14:57:07;6.57;;;2.67;;
1593;SDS011;790;47.000;16.084;2024-03-29T15:03:29;5.38;;;2.22;;
1593;SDS011;790;47.000;16.084;2024-03-29T15:10:01;4.90;;;2.03;;
1593;SDS011;790;47.000;16.084;2024-03-29T15:21:26;9.95;;;2.60;;
1593;SDS011;790;47.000;16.084;2024-03-29T15:27:48;9.38;;;2.10;;
1593;SDS011;790;47.000;16.084;2024-03-29T15:34:27;8.02;;;2.40;;
1593;SDS011;790;47.000;16.084;2024-03-29T15:40:54;6.88;;;2.20;;
1593;SDS011;790;47.000;16.084;2024-03-29T15:47:16;8.98;;;2.40;;
1593;SDS011;790;47.000;16.084;2024-03-29T15:53:38;6.20;;;2.10;;
1593;SDS011;790;47.000;16.084;2024-03-29T16:00:03;7.80;;;2.60;;
1593;SDS011;790;47.000;16.084;2024-03-29T16:06:27;9.13;;;2.42;;
1593;SDS011;790;47.000;16.084;2024-03-29T16:12:50;7.35;;;2.30;;
1593;SDS011;790;47.000;16.084;2024-03-29T16:23:49;13.70;;;3.22;;
1593;SDS011;790;47.000;16.084;2024-03-29T16:30:11;8.85;;;2.65;;
1593;SDS011;790;47.000;16.084;2024-03-29T16:36:36;10.73;;;2.90;;
1593;SDS011;790;47.000;16.084;2024-03-29T16:43:00;8.38;;;2.97;;
1593;SDS011;790;47.000;16.084;2024-03-29T16:49:22;8.55;;;2.78;;
1593;SDS011;790;47.000;16.084;2024-03-29T16:55:46;10.77;;;2.58;;
1593;SDS011;790;47.000;16.084;2024-03-29T17:02:11;11.57;;;2.97;;
1593;SDS011;790;47.000;16.084;2024-03-29T17:08:32;12.85;;;3.17;;
1593;SDS011;790;47.000;16.084;2024-03-29T17:14:54;10.25;;;3.45;;
1593;SDS011;790;47.000;16.084;2024-03-29T17:26:04;9.27;;;3.17;;
1593;SDS011;790;47.000;16.084;2024-03-29T17:32:26;13.32;;;3.25;;
1593;SDS011;790;47.000;16.084;2024-03-29T17:38:48;14.77;;;3.20;;
1593;SDS011;790;47.000;16.084;2024-03-29T17:45:12;12.82;;;3.97;;
1593;SDS011;790;47.000;16.084;2024-03-29T17:51:34;13.13;;;5.75;;
1593;SDS011;790;47.000;16.084;2024-03-29T17:57:56;19.70;;;3.58;;
1593;SDS011;790;47.000;16.084;2024-03-29T18:04:20;15.75;;;3.60;;
1593;SDS011;790;47.000;16.084;2024-03-29T18:10:42;12.43;;;3.15;;
1593;SDS011;790;47.000;16.084;2024-03-29T18:17:05;15.18;;;3.78;;
1593;SDS011;790;47.000;16.084;2024-03-29T18:28:13;14.68;;;2.70;;
1593;SDS011;790;47.000;16.084;2024-03-29T18:34:35;13.23;;;2.90;;
1593;SDS011;790;47.000;16.084;2024-03-29T18:40:57;15.52;;;3.58;;
1593;SDS011;790;47.000;16.084;2024-03-29T18:47:21;13.43;;;2.85;;
1593;SDS011;790;47.000;16.084;2024-03-29T18:53:44;13.07;;;3.37;;
1593;SDS011;790;47.000;16.084;2024-03-29T19:00:08;14.52;;;4.45;;
1593;SDS011;790;47.000;16.084;2024-03-29T19:06:32;12.63;;;4.75;;
1593;SDS011;790;47.000;16.084;2024-03-29T19:12:54;21.63;;;6.95;;
1593;SDS011;790;47.000;16.084;2024-03-29T19:19:17;21.85;;;4.68;;
1593;SDS011;790;47.000;16.084;2024-03-29T19:30:26;24.48;;;8.07;;
1593;SDS011;790;47.000;16.084;2024-03-29T19:36:49;21.38;;;5.95;;
1593;SDS011;790;47.000;16.084;2024-03-29T19:43:12;24.15;;;7.47;;
1593;SDS011;790;47.000;16.084;2024-03-29T19:49:36;30.42;;;7.38;;
1593;SDS011;790;47.000;16.084;2024-03-29T19:55:58;19.13;;;5.15;;
1593;SDS011;790;47.000;16.084;2024-03-29T20:02:21;15.63;;;4.55;;
1593;SDS011;790;47.000;16.084;2024-03-29T20:08:44;18.60;;;3.95;;
1593;SDS011;790;47.000;16.084;2024-03-29T20:15:06;19.27;;;3.75;;
1593;SDS011;790;47.000;16.084;2024-03-29T20:21:28;25.58;;;4.80;;
1593;SDS011;790;47.000;16.084;2024-03-29T20:32:36;28.63;;;6.20;;
1593;SDS011;790;47.000;16.084;2024-03-29T20:38:59;21.38;;;4.07;;
1593;SDS011;790;47.000;16.084;2024-03-29T20:45:22;28.90;;;5.18;;
1593;SDS011;790;47.000;16.084;2024-03-29T20:51:45;33.30;;;5.07;;
1593;SDS011;790;47.000;16.084;2024-03-29T20:58:08;23.00;;;5.22;;
1593;SDS011;790;47.000;16.084;2024-03-29T21:04:31;26.00;;;4.90;;
1593;SDS011;790;47.000;16.084;2024-03-29T21:11:12;29.98;;;4.90;;
1593;SDS011;790;47.000;16.084;2024-03-29T21:17:34;23.60;;;4.63;;
1593;SDS011;790;47.000;16.084;2024-03-29T21:23:57;23.02;;;4.45;;
1593;SDS011;790;47.000;16.084;2024-03-29T21:35:18;20.75;;;4.68;;
1593;SDS011;790;47.000;16.084;2024-03-29T21:41:42;28.15;;;4.90;;
1593;SDS011;790;47.000;16.084;2024-03-29T21:48:04;26.17;;;4.60;;
1593;SDS011;790;47.000;16.084;2024-03-29T21:54:28;23.07;;;4.30;;
1593;SDS011;790;47.000;16.084;2024-03-29T22:00:50;26.60;;;4.83;;
1593;SDS011;790;47.000;16.084;2024-03-29T22:07:34;22.97;;;4.33;;
1593;SDS011;790;47.000;16.084;2024-03-29T22:14:08;23.47;;;4.13;;
1593;SDS011;790;47.000;16.084;2024-03-29T22:20:31;21.85;;;4.25;;
1593;SDS011;790;47.000;16.084;2024-03-29T22:26:53;17.20;;;3.87;;
1593;SDS011;790;47.000;16.084;2024-03-29T22:38:11;23.13;;;3.50;;
1593;SDS011;790;47.000;16.084;2024-03-29T22:44:34;14.50;;;3.63;;
1593;SDS011;790;47.000;16.084;2024-03-29T22:50:55;14.38;;;3.17;;
1593;SDS011;790;47.000;16.084;2024-03-29T22:57:19;13.18;;;2.72;;
1593;SDS011;790;47.000;16.084;2024-03-29T23:03:41;11.45;;;2.72;;
1593;SDS011;790;47.000;16.084;2024-03-29T23:10:04;13.85;;;2.85;;
1593;SDS011;790;47.000;16.084;2024-03-29T23:16:28;9.15;;;2.30;;
1593;SDS011;790;47.000;16.084;2024-03-29T23:22:50;10.20;;;2.70;;
1593;SDS011;790;47.000;16.084;2024-03-29T23:29:18;12.63;;;2.53;;
1593;SDS011;790;47.000;16.084;2024-03-29T23:40:36;8.93;;;2.00;;
1593;SDS011;790;47.000;16.084;2024-03-29T23:46:57;7.07;;;2.05;;
1593;SDS011;790;47.000;16.084;2024-03-29T23:53:20;5.28;;;1.85;;
1593;SDS011;790;47.000;16.084;2024-03-29T23:59:43;7.45;;;1.88;;
